Time;durP1;ratioP1;P1;durP2;ratioP2;P2;SDS_P1;SDS_P2;PMS_P1;PMS_P2;Temp;Humidity;BMP_temperature;BMP_pressure;BME280_temperature;BME280_humidity;BME280_pressure;Samples;Min_cycle;Max_cycle;Signal;HPM_P1;HPM_P2
2021/07/25 00:00:11;;;;;;;9.05;8.15;;;;;;;;;;5096359;28;20016;-66
2021/07/25 00:02:36;;;;;;;8.80;8.00;;;;;;;;;;5097032;28;20052;-67
2021/07/25 00:05:02;;;;;;;8.25;7.38;;;;;;;;;;5093580;28;20024;-62
2021/07/25 00:07:28;;;;;;;8.05;7.25;;;;;;;;;;5096022;28;20074;-61
2021/07/25 00:09:53;;;;;;;9.50;7.70;;;;;;;;;;5092639;28;20423;-62
2021/07/25 00:12:18;;;;;;;9.83;9.03;;;;;;;;;;5092568;28;20032;-62
2021/07/25 00:14:43;;;;;;;9.07;8.20;;;;;;;;;;5090308;28;20331;-62
2021/07/25 00:17:09;;;;;;;9.15;8.07;;;;;;;;;;5084695;28;20264;-62
2021/07/25 00:19:35;;;;;;;8.98;7.97;;;;;;;;;;5090510;28;20471;-62
2021/07/25 00:22:01;;;;;;;10.18;8.48;;;;;;;;;;5087448;28;20016;-63
2021/07/25 00:24:34;;;;;;;12.13;8.05;;;;;;;;;;5091484;28;20073;-61
2021/07/25 00:27:00;;;;;;;8.45;7.65;;;;;;;;;;5087842;28;20020;-65
2021/07/25 00:29:31;;;;;;;9.50;7.78;;;;;;;;;;5094085;28;20065;-66
2021/07/25 00:32:00;;;;;;;10.50;7.57;;;;;;;;;;5094808;28;20028;-67
2021/07/25 00:34:27;;;;;;;11.00;7.88;;;;;;;;;;5090725;28;20028;-66
2021/07/25 00:36:52;;;;;;;10.68;8.00;;;;;;;;;;5079553;28;20039;-67
2021/07/25 00:39:17;;;;;;;9.57;8.30;;;;;;;;;;5093107;28;20836;-66
2021/07/25 00:41:42;;;;;;;10.10;9.10;;;;;;;;;;5093880;28;20031;-67
2021/07/25 00:44:08;;;;;;;11.00;8.55;;;;;;;;;;5091035;28;20024;-66
2021/07/25 00:46:35;;;;;;;10.10;8.93;;;;;;;;;;5093803;28;20040;-67
2021/07/25 00:49:01;;;;;;;9.93;8.93;;;;;;;;;;5094085;28;20020;-66
2021/07/25 00:51:27;;;;;;;9.60;8.60;;;;;;;;;;5088613;28;20032;-67
2021/07/25 00:53:53;;;;;;;9.73;8.77;;;;;;;;;;5083053;28;20044;-67
2021/07/25 00:56:18;;;;;;;10.38;8.68;;;;;;;;;;5089129;28;20024;-68
2021/07/25 00:58:43;;;;;;;9.55;8.52;;;;;;;;;;5094026;28;20031;-66
2021/07/25 01:01:10;;;;;;;9.45;8.45;;;;;;;;;;5093463;28;20426;-67
2021/07/25 01:04:05;;;;;;;10.10;9.10;;;;;;;;;;5090423;28;20280;-66
2021/07/25 01:06:46;;;;;;;10.32;8.63;;;;;;;;;;5091760;28;20027;-66
2021/07/25 01:09:19;;;;;;;9.85;8.85;;;;;;;;;;5093805;28;20107;-66
2021/07/25 01:11:50;;;;;;;9.00;8.10;;;;;;;;;;5085892;28;20062;-67
2021/07/25 01:14:19;;;;;;;9.65;8.65;;;;;;;;;;5090109;28;20028;-66
2021/07/25 01:16:44;;;;;;;9.55;8.32;;;;;;;;;;5093479;28;20020;-66
2021/07/25 01:19:09;;;;;;;15.02;11.32;;;;;;;;;;5092127;28;20482;-69
2021/07/25 01:21:34;;;;;;;11.98;10.73;;;;;;;;;;5092954;28;20122;-67
2021/07/25 01:24:00;;;;;;;12.88;10.85;;;;;;;;;;5089360;28;20027;-66
2021/07/25 01:26:29;;;;;;;12.52;11.00;;;;;;;;;;5093284;28;20031;-68
2021/07/25 01:28:56;;;;;;;12.52;10.07;;;;;;;;;;5090836;28;20016;-67
2021/07/25 01:31:33;;;;;;;11.15;10.05;;;;;;;;;;5092118;28;20111;-68
2021/07/25 01:33:59;;;;;;;10.77;9.70;;;;;;;;;;5090241;28;20016;-67
2021/07/25 01:36:25;;;;;;;10.82;9.70;;;;;;;;;;5093263;28;20497;-67
2021/07/25 01:38:52;;;;;;;10.77;9.68;;;;;;;;;;5093495;28;20020;-67
2021/07/25 01:41:17;;;;;;;10.25;9.25;;;;;;;;;;5092520;28;20008;-67
2021/07/25 01:43:45;;;;;;;10.88;9.77;;;;;;;;;;5089929;28;20023;-66
2021/07/25 01:46:11;;;;;;;9.68;8.68;;;;;;;;;;5092116;28;20501;-66
2021/07/25 01:48:36;;;;;;;9.65;8.65;;;;;;;;;;5082517;27;20123;-66
2021/07/25 01:51:01;;;;;;;12.10;9.90;;;;;;;;;;5092751;28;20030;-66
2021/07/25 01:53:27;;;;;;;10.75;8.85;;;;;;;;;;5090210;28;20538;-66
2021/07/25 01:55:52;;;;;;;10.40;9.40;;;;;;;;;;5092989;28;20019;-67
2021/07/25 01:58:17;;;;;;;10.52;9.43;;;;;;;;;;5092331;28;20063;-66
2021/07/25 02:00:42;;;;;;;10.73;9.63;;;;;;;;;;5092153;28;20072;-66
2021/07/25 02:03:07;;;;;;;10.65;9.65;;;;;;;;;;5091173;28;20032;-67
2021/07/25 02:05:36;;;;;;;12.43;10.32;;;;;;;;;;5082159;28;20028;-67
2021/07/25 02:08:02;;;;;;;11.50;10.40;;;;;;;;;;5073126;28;20023;-67
2021/07/25 02:10:27;;;;;;;11.95;10.70;;;;;;;;;;5076952;28;20103;-67
2021/07/25 02:12:52;;;;;;;13.82;11.35;;;;;;;;;;5092530;28;20024;-67
2021/07/25 02:15:18;;;;;;;12.02;10.52;;;;;;;;;;5089570;28;20095;-67
2021/07/25 02:17:43;;;;;;;11.27;10.18;;;;;;;;;;5092808;28;20024;-67
2021/07/25 02:20:08;;;;;;;11.32;10.18;;;;;;;;;;5092296;28;20115;-68
2021/07/25 02:22:33;;;;;;;10.45;9.45;;;;;;;;;;5087748;28;20503;-67
2021/07/25 02:24:59;;;;;;;11.07;9.82;;;;;;;;;;5089100;28;20467;-66
2021/07/25 02:27:24;;;;;;;11.70;10.50;;;;;;;;;;5092645;28;20023;-67
2021/07/25 02:29:49;;;;;;;11.68;9.60;;;;;;;;;;5088838;28;20040;-68
2021/07/25 02:32:14;;;;;;;11.05;9.95;;;;;;;;;;5090855;28;20028;-67
2021/07/25 02:34:41;;;;;;;11.73;10.52;;;;;;;;;;5089551;28;20024;-66
2021/07/25 02:37:10;;;;;;;10.43;9.35;;;;;;;;;;5092075;28;20478;-67
2021/07/25 02:39:35;;;;;;;11.07;9.82;;;;;;;;;;5092343;28;20106;-66
2021/07/25 02:42:00;;;;;;;10.75;9.65;;;;;;;;;;5079612;28;20485;-67
2021/07/25 02:44:25;;;;;;;11.60;10.15;;;;;;;;;;5087252;28;20543;-66
2021/07/25 02:46:51;;;;;;;10.05;8.68;;;;;;;;;;5091947;28;20429;-67
2021/07/25 02:49:16;;;;;;;10.60;9.60;;;;;;;;;;5091422;28;20020;-66
2021/07/25 02:51:41;;;;;;;10.75;9.65;;;;;;;;;;5092101;28;20305;-67
2021/07/25 02:54:06;;;;;;;12.85;9.98;;;;;;;;;;5088639;28;20036;-67
2021/07/25 02:56:31;;;;;;;11.43;10.32;;;;;;;;;;5092055;28;20099;-65
2021/07/25 02:58:57;;;;;;;10.77;9.70;;;;;;;;;;5088136;28;20024;-66
2021/07/25 03:01:22;;;;;;;10.95;9.85;;;;;;;;;;5090612;28;20012;-67
2021/07/25 03:03:47;;;;;;;11.00;9.63;;;;;;;;;;5089070;28;20051;-66
2021/07/25 03:06:12;;;;;;;11.00;9.90;;;;;;;;;;5091861;28;20034;-67
2021/07/25 03:08:38;;;;;;;11.43;9.95;;;;;;;;;;5092178;28;20024;-67
2021/07/25 03:11:07;;;;;;;9.95;8.95;;;;;;;;;;5091779;28;20460;-65
2021/07/25 03:13:32;;;;;;;11.35;10.15;;;;;;;;;;5088619;28;20434;-66
2021/07/25 03:16:01;;;;;;;10.52;9.50;;;;;;;;;;5089608;28;20027;-66
2021/07/25 03:18:27;;;;;;;10.05;9.15;;;;;;;;;;5087546;28;20024;-67
2021/07/25 03:20:52;;;;;;;10.20;9.00;;;;;;;;;;5083118;28;20383;-66
2021/07/25 03:23:17;;;;;;;9.75;8.73;;;;;;;;;;5089185;28;20522;-68
2021/07/25 03:25:42;;;;;;;10.75;9.73;;;;;;;;;;5091149;28;20380;-67
2021/07/25 03:28:07;;;;;;;11.20;10.20;;;;;;;;;;5091447;28;20352;-68
2021/07/25 03:30:33;;;;;;;11.02;10.02;;;;;;;;;;5091333;28;20395;-67
2021/07/25 03:32:58;;;;;;;10.80;9.68;;;;;;;;;;5088823;28;20020;-67
2021/07/25 03:35:24;;;;;;;10.80;9.77;;;;;;;;;;5089041;28;20012;-67
2021/07/25 03:37:49;;;;;;;10.40;9.50;;;;;;;;;;5091431;28;20028;-66
2021/07/25 03:40:14;;;;;;;11.15;10.05;;;;;;;;;;5091455;28;20031;-67
2021/07/25 03:42:40;;;;;;;10.85;8.85;;;;;;;;;;5091491;28;20244;-66
2021/07/25 03:45:05;;;;;;;9.95;8.95;;;;;;;;;;5090163;28;20024;-66
2021/07/25 03:47:31;;;;;;;8.85;7.95;;;;;;;;;;5096100;28;20012;-66
2021/07/25 03:49:57;;;;;;;9.95;8.30;;;;;;;;;;5089504;28;20099;-67
2021/07/25 03:52:22;;;;;;;9.57;8.40;;;;;;;;;;5095352;28;20016;-67
2021/07/25 03:54:47;;;;;;;8.63;7.72;;;;;;;;;;5091507;28;20016;-66
2021/07/25 03:57:13;;;;;;;9.68;8.07;;;;;;;;;;5095128;28;20016;-66
2021/07/25 03:59:38;;;;;;;8.48;7.50;;;;;;;;;;5095294;28;20016;-66
2021/07/25 04:02:06;;;;;;;8.45;7.65;;;;;;;;;;5095562;28;20032;-67
2021/07/25 04:04:32;;;;;;;11.15;7.75;;;;;;;;;;5092233;28;20047;-66
2021/07/25 04:06:57;;;;;;;8.80;7.90;;;;;;;;;;5085595;28;20060;-67
2021/07/25 04:09:22;;;;;;;9.93;8.02;;;;;;;;;;5079394;28;20544;-66
2021/07/25 04:11:55;;;;;;;8.50;7.40;;;;;;;;;;5095280;28;20031;-67
2021/07/25 04:14:20;;;;;;;9.48;6.93;;;;;;;;;;5091330;28;20387;-65
2021/07/25 04:16:45;;;;;;;9.10;8.20;;;;;;;;;;5094780;28;20026;-66
2021/07/25 04:19:10;;;;;;;8.43;7.63;;;;;;;;;;5095122;28;20008;-66
2021/07/25 04:21:36;;;;;;;8.50;7.55;;;;;;;;;;5094707;28;20429;-65
2021/07/25 04:24:01;;;;;;;9.20;8.27;;;;;;;;;;5089370;28;20429;-66
2021/07/25 04:26:26;;;;;;;8.38;7.57;;;;;;;;;;5094738;28;20395;-66
2021/07/25 04:28:51;;;;;;;8.63;7.72;;;;;;;;;;5094629;28;20020;-66
2021/07/25 04:31:17;;;;;;;8.80;8.00;;;;;;;;;;5094251;28;20475;-66
2021/07/25 04:33:43;;;;;;;8.55;7.80;;;;;;;;;;5090858;28;20038;-66
2021/07/25 04:36:13;;;;;;;8.98;7.68;;;;;;;;;;5094195;28;20020;-67
2021/07/25 04:38:39;;;;;;;8.93;8.05;;;;;;;;;;5093353;28;20027;-66
2021/07/25 04:41:08;;;;;;;8.35;7.55;;;;;;;;;;5094010;28;20024;-67
2021/07/25 04:43:33;;;;;;;9.93;8.35;;;;;;;;;;5090859;28;20020;-67
2021/07/25 04:46:16;;;;;;;8.93;7.45;;;;;;;;;;5094173;28;20038;-67
2021/07/25 04:49:00;;;;;;;8.60;7.72;;;;;;;;;;5077517;28;20020;-67
2021/07/25 04:51:26;;;;;;;8.93;8.02;;;;;;;;;;5094118;28;20099;-67
2021/07/25 04:53:53;;;;;;;9.30;8.25;;;;;;;;;;5087717;28;20044;-68
2021/07/25 04:56:20;;;;;;;9.23;8.30;;;;;;;;;;5092539;28;20074;-67
2021/07/25 04:58:53;;;;;;;9.32;7.97;;;;;;;;;;5087338;28;20048;-68
2021/07/25 05:01:27;;;;;;;9.85;8.85;;;;;;;;;;5092583;28;20046;-67
2021/07/25 05:03:52;;;;;;;8.82;7.93;;;;;;;;;;5090066;28;20111;-66
2021/07/25 05:06:18;;;;;;;9.20;8.35;;;;;;;;;;5094153;28;20515;-67
2021/07/25 05:08:44;;;;;;;9.32;7.75;;;;;;;;;;5094206;28;20020;-67
2021/07/25 05:11:15;;;;;;;8.90;7.95;;;;;;;;;;5093599;28;20027;-67
2021/07/25 05:13:42;;;;;;;9.23;8.32;;;;;;;;;;5090161;28;20020;-67
2021/07/25 05:16:09;;;;;;;8.05;7.25;;;;;;;;;;5084197;28;20432;-67
2021/07/25 05:18:36;;;;;;;8.52;7.38;;;;;;;;;;5087637;28;20030;-66
2021/07/25 05:21:04;;;;;;;8.52;7.68;;;;;;;;;;5093346;28;20012;-66
2021/07/25 05:23:36;;;;;;;8.93;8.10;;;;;;;;;;5090269;28;20076;-66
2021/07/25 05:26:02;;;;;;;7.68;7.05;;;;;;;;;;5093662;28;20016;-67
2021/07/25 05:28:28;;;;;;;8.38;7.60;;;;;;;;;;5093653;28;20008;-69
2021/07/25 05:30:54;;;;;;;7.82;7.13;;;;;;;;;;5093406;28;20099;-69
2021/07/25 05:33:20;;;;;;;8.70;7.65;;;;;;;;;;5088483;28;20008;-69
2021/07/25 05:35:45;;;;;;;8.15;7.35;;;;;;;;;;5093628;28;20019;-68
2021/07/25 05:38:10;;;;;;;7.90;7.10;;;;;;;;;;5093281;28;20031;-68
2021/07/25 05:40:36;;;;;;;7.73;6.97;;;;;;;;;;5092667;28;20012;-69
2021/07/25 05:43:01;;;;;;;7.82;7.03;;;;;;;;;;5092127;28;20278;-71
2021/07/25 05:45:26;;;;;;;7.50;6.80;;;;;;;;;;5088948;28;20103;-71
2021/07/25 05:47:51;;;;;;;8.52;7.28;;;;;;;;;;5096599;28;20012;-72
2021/07/25 05:50:17;;;;;;;7.65;6.75;;;;;;;;;;5092764;28;20016;-72
2021/07/25 05:52:42;;;;;;;8.35;7.32;;;;;;;;;;5091970;28;20048;-73
2021/07/25 05:55:07;;;;;;;7.35;6.60;;;;;;;;;;5089791;28;20031;-72
2021/07/25 05:57:33;;;;;;;7.53;6.63;;;;;;;;;;5092644;28;20047;-73
2021/07/25 05:59:59;;;;;;;7.85;7.05;;;;;;;;;;5092758;28;20042;-72
2021/07/25 06:02:25;;;;;;;8.07;6.47;;;;;;;;;;5092571;28;20012;-73
2021/07/25 06:04:50;;;;;;;7.30;6.60;;;;;;;;;;5069759;28;20490;-73
2021/07/25 06:07:15;;;;;;;6.70;5.93;;;;;;;;;;5077272;28;20266;-72
2021/07/25 06:09:40;;;;;;;7.25;6.55;;;;;;;;;;5092171;28;20277;-72
2021/07/25 06:12:05;;;;;;;7.47;6.37;;;;;;;;;;5092468;28;20050;-73
2021/07/25 06:14:31;;;;;;;6.97;6.10;;;;;;;;;;5089436;28;20274;-72
2021/07/25 06:16:56;;;;;;;6.53;5.93;;;;;;;;;;5092591;28;20364;-73
2021/07/25 06:19:21;;;;;;;7.20;6.60;;;;;;;;;;5092070;28;20308;-73
2021/07/25 06:21:46;;;;;;;6.88;6.22;;;;;;;;;;5092441;28;20015;-71
2021/07/25 06:24:12;;;;;;;6.88;5.88;;;;;;;;;;5089199;28;20027;-70
2021/07/25 06:26:37;;;;;;;7.47;5.88;;;;;;;;;;5092729;28;20024;-70
2021/07/25 06:29:02;;;;;;;8.57;6.53;;;;;;;;;;5091770;28;20030;-70
2021/07/25 06:31:27;;;;;;;5.43;4.93;;;;;;;;;;5091933;28;20024;-70
2021/07/25 06:33:53;;;;;;;8.35;6.30;;;;;;;;;;5089037;28;20032;-71
2021/07/25 06:36:19;;;;;;;5.95;5.35;;;;;;;;;;5092370;28;20028;-71
2021/07/25 06:38:45;;;;;;;6.65;6.05;;;;;;;;;;5092429;28;20069;-71
2021/07/25 06:41:10;;;;;;;7.53;5.82;;;;;;;;;;5091368;28;20414;-71
2021/07/25 06:43:35;;;;;;;7.30;6.05;;;;;;;;;;5088054;28;20018;-71
2021/07/25 06:46:01;;;;;;;6.45;5.80;;;;;;;;;;5088424;28;20026;-71
2021/07/25 06:48:27;;;;;;;6.35;5.75;;;;;;;;;;5090160;28;20024;-71
2021/07/25 06:50:53;;;;;;;9.23;5.78;;;;;;;;;;5091893;28;20124;-67
2021/07/25 06:53:19;;;;;;;5.20;4.70;;;;;;;;;;5089146;28;20289;-68
2021/07/25 06:55:45;;;;;;;5.10;4.65;;;;;;;;;;5092199;28;20028;-68
2021/07/25 06:58:10;;;;;;;4.63;4.22;;;;;;;;;;5090492;28;20532;-68
2021/07/25 07:00:35;;;;;;;5.50;4.43;;;;;;;;;;5091861;28;20027;-68
2021/07/25 07:03:00;;;;;;;4.97;4.57;;;;;;;;;;5090231;28;20087;-67
2021/07/25 07:05:27;;;;;;;4.40;4.00;;;;;;;;;;5088311;28;20330;-69
2021/07/25 07:07:53;;;;;;;5.18;4.45;;;;;;;;;;5092286;28;20047;-70
2021/07/25 07:10:19;;;;;;;4.95;4.28;;;;;;;;;;5090404;28;20589;-69
2021/07/25 07:12:45;;;;;;;4.97;4.47;;;;;;;;;;5091862;28;20028;-69
2021/07/25 07:15:11;;;;;;;4.82;4.32;;;;;;;;;;5087573;28;20020;-70
2021/07/25 07:17:38;;;;;;;5.25;4.18;;;;;;;;;;5091871;28;20028;-70
2021/07/25 07:20:04;;;;;;;4.20;3.80;;;;;;;;;;5089225;28;20403;-71
2021/07/25 07:22:30;;;;;;;4.38;3.88;;;;;;;;;;5095845;28;20492;-69
2021/07/25 07:24:55;;;;;;;4.13;3.63;;;;;;;;;;5081948;28;20047;-69
2021/07/25 07:27:21;;;;;;;4.32;3.92;;;;;;;;;;5075541;28;20024;-68
2021/07/25 07:29:46;;;;;;;5.10;4.60;;;;;;;;;;5090242;28;20058;-68
2021/07/25 07:32:12;;;;;;;4.40;4.00;;;;;;;;;;5089325;28;20047;-69
2021/07/25 07:34:37;;;;;;;3.78;3.47;;;;;;;;;;5072502;28;20021;-70
2021/07/25 07:37:02;;;;;;;4.82;3.92;;;;;;;;;;5075470;28;20416;-72
2021/07/25 07:39:28;;;;;;;4.80;3.17;;;;;;;;;;5091595;28;20014;-68
2021/07/25 07:41:53;;;;;;;3.67;3.38;;;;;;;;;;5092568;28;20380;-70
2021/07/25 07:44:18;;;;;;;4.25;3.80;;;;;;;;;;5085187;28;20078;-69
2021/07/25 07:46:44;;;;;;;4.00;3.60;;;;;;;;;;5079808;28;20074;-69
2021/07/25 07:49:09;;;;;;;5.13;4.00;;;;;;;;;;5074883;28;20266;-69
2021/07/25 07:51:34;;;;;;;4.30;3.33;;;;;;;;;;5075262;28;20028;-69
2021/07/25 07:54:00;;;;;;;3.78;3.40;;;;;;;;;;5071706;28;20040;-69
2021/07/25 07:56:26;;;;;;;2.72;2.53;;;;;;;;;;5080954;28;20117;-70
2021/07/25 07:58:51;;;;;;;3.80;3.38;;;;;;;;;;5094810;28;20035;-68
2021/07/25 08:01:16;;;;;;;6.03;3.13;;;;;;;;;;5095026;28;20395;-71
2021/07/25 08:03:41;;;;;;;3.95;3.50;;;;;;;;;;5089992;28;20032;-70
2021/07/25 08:06:07;;;;;;;3.83;3.27;;;;;;;;;;5094831;28;20471;-71
2021/07/25 08:08:32;;;;;;;3.38;3.08;;;;;;;;;;5093552;28;20274;-70
2021/07/25 08:10:57;;;;;;;4.27;3.37;;;;;;;;;;5093916;28;20019;-69
2021/07/25 08:13:22;;;;;;;3.60;3.30;;;;;;;;;;5078548;28;20270;-69
2021/07/25 08:15:48;;;;;;;3.88;3.30;;;;;;;;;;5093303;28;20200;-71
2021/07/25 08:18:13;;;;;;;3.63;3.30;;;;;;;;;;5092286;28;20051;-69
2021/07/25 08:20:38;;;;;;;3.70;3.33;;;;;;;;;;5093237;28;20024;-72
2021/07/25 08:23:03;;;;;;;4.00;3.28;;;;;;;;;;5085206;28;20024;-71
2021/07/25 08:25:29;;;;;;;4.22;3.03;;;;;;;;;;5097937;28;20016;-70
2021/07/25 08:27:54;;;;;;;3.77;3.47;;;;;;;;;;5094010;28;20012;-71
2021/07/25 08:30:19;;;;;;;4.07;3.55;;;;;;;;;;5088551;28;20289;-71
2021/07/25 08:32:44;;;;;;;3.97;3.67;;;;;;;;;;5092169;28;20360;-67
2021/07/25 08:35:10;;;;;;;4.10;3.30;;;;;;;;;;5089810;28;20632;-71
2021/07/25 08:37:35;;;;;;;5.17;3.20;;;;;;;;;;5088115;28;20624;-70
2021/07/25 08:40:01;;;;;;;3.30;2.97;;;;;;;;;;5090851;27;20262;-71
2021/07/25 08:42:28;;;;;;;3.65;3.08;;;;;;;;;;5095094;28;20023;-71
2021/07/25 08:44:54;;;;;;;3.40;3.10;;;;;;;;;;5092965;28;20020;-70
2021/07/25 08:47:22;;;;;;;3.45;3.15;;;;;;;;;;5092013;28;20038;-70
2021/07/25 08:49:47;;;;;;;3.67;3.28;;;;;;;;;;5088774;28;20500;-70
2021/07/25 08:52:16;;;;;;;3.33;2.93;;;;;;;;;;5090810;28;20551;-72
2021/07/25 08:54:42;;;;;;;4.88;3.67;;;;;;;;;;5085246;28;20044;-69
2021/07/25 08:57:12;;;;;;;3.80;3.50;;;;;;;;;;5089825;28;20557;-70
2021/07/25 08:59:38;;;;;;;3.72;3.38;;;;;;;;;;5088781;28;20020;-70
2021/07/25 09:02:06;;;;;;;3.97;3.20;;;;;;;;;;5084837;28;20471;-71
2021/07/25 09:04:31;;;;;;;3.78;3.13;;;;;;;;;;5086251;28;20023;-72
2021/07/25 09:06:59;;;;;;;3.70;3.40;;;;;;;;;;5091390;28;20020;-71
2021/07/25 09:09:25;;;;;;;3.45;3.15;;;;;;;;;;5092668;28;20023;-71
2021/07/25 09:11:50;;;;;;;3.20;2.90;;;;;;;;;;5089253;28;20016;-70
2021/07/25 09:14:15;;;;;;;4.13;3.47;;;;;;;;;;5087565;28;20168;-70
2021/07/25 09:16:41;;;;;;;3.90;3.23;;;;;;;;;;5092923;28;20380;-71
2021/07/25 09:19:06;;;;;;;3.03;2.83;;;;;;;;;;5089019;28;20745;-70
2021/07/25 09:21:35;;;;;;;3.38;2.40;;;;;;;;;;5092004;28;20138;-70
2021/07/25 09:24:16;;;;;;;3.95;3.08;;;;;;;;;;5083897;28;20024;-70
2021/07/25 09:27:04;;;;;;;3.17;2.88;;;;;;;;;;5088589;28;20093;-71
2021/07/25 09:29:33;;;;;;;4.22;3.10;;;;;;;;;;5082210;28;20023;-70
2021/07/25 09:32:10;;;;;;;2.80;2.60;;;;;;;;;;5085340;28;20335;-71
2021/07/25 09:34:40;;;;;;;2.92;2.72;;;;;;;;;;5081504;28;20111;-70
2021/07/25 09:37:06;;;;;;;3.88;2.70;;;;;;;;;;5087931;28;20023;-70
2021/07/25 09:39:35;;;;;;;3.47;3.25;;;;;;;;;;5088024;28;20034;-70
2021/07/25 09:42:00;;;;;;;3.53;3.20;;;;;;;;;;5092633;28;20016;-70
2021/07/25 09:44:25;;;;;;;2.97;2.70;;;;;;;;;;5086320;28;20032;-70
2021/07/25 09:46:51;;;;;;;3.20;2.40;;;;;;;;;;5089959;28;20035;-71
2021/07/25 09:49:18;;;;;;;2.58;2.38;;;;;;;;;;5089934;28;20024;-71
2021/07/25 09:51:44;;;;;;;2.40;2.20;;;;;;;;;;5091625;28;20107;-70
2021/07/25 09:54:09;;;;;;;2.10;1.73;;;;;;;;;;5088520;28;20134;-76
2021/07/25 09:56:34;;;;;;;2.00;1.80;;;;;;;;;;5091374;28;20025;-76
2021/07/25 09:59:00;;;;;;;3.38;1.92;;;;;;;;;;5085423;28;20047;-76
2021/07/25 10:01:35;;;;;;;3.10;1.95;;;;;;;;;;5091866;28;20024;-78
2021/07/25 10:04:27;;;;;;;2.03;1.90;;;;;;;;;;5086862;28;20020;-77
2021/07/25 10:06:56;;;;;;;2.50;2.30;;;;;;;;;;5087671;28;20467;-78
2021/07/25 10:09:22;;;;;;;2.40;2.20;;;;;;;;;;5092115;28;20024;-78
2021/07/25 10:12:03;;;;;;;2.47;2.20;;;;;;;;;;5085809;28;20015;-77
2021/07/25 10:14:30;;;;;;;2.60;2.40;;;;;;;;;;5083470;28;20034;-76
2021/07/25 10:16:57;;;;;;;2.45;2.25;;;;;;;;;;5084711;28;20028;-76
2021/07/25 10:19:25;;;;;;;2.53;2.30;;;;;;;;;;5079846;28;20028;-75
2021/07/25 10:21:52;;;;;;;2.17;1.98;;;;;;;;;;5082972;28;20091;-77
2021/07/25 10:24:17;;;;;;;1.88;1.73;;;;;;;;;;5080496;28;20012;-76
2021/07/25 10:26:43;;;;;;;2.40;2.20;;;;;;;;;;5083007;28;20020;-77
2021/07/25 10:29:11;;;;;;;2.33;1.80;;;;;;;;;;5083597;28;20054;-77
2021/07/25 10:31:38;;;;;;;2.40;2.20;;;;;;;;;;5087327;28;20028;-77
2021/07/25 10:34:03;;;;;;;2.08;1.88;;;;;;;;;;5083641;28;20023;-77
2021/07/25 10:36:30;;;;;;;2.35;2.10;;;;;;;;;;5082907;28;20016;-76
2021/07/25 10:38:55;;;;;;;2.42;2.22;;;;;;;;;;5084620;28;20499;-78
2021/07/25 10:41:23;;;;;;;2.65;2.10;;;;;;;;;;5089129;28;20051;-77
2021/07/25 10:43:48;;;;;;;2.38;2.28;;;;;;;;;;5082658;28;20429;-75
2021/07/25 10:46:13;;;;;;;2.00;1.90;;;;;;;;;;5087414;28;20037;-78
2021/07/25 10:49:03;;;;;;;2.05;1.95;;;;;;;;;;5089744;28;20258;-72
2021/07/25 10:51:29;;;;;;;2.13;1.90;;;;;;;;;;5087366;28;20016;-76
2021/07/25 10:54:14;;;;;;;2.70;2.50;;;;;;;;;;5085443;28;20055;-74
2021/07/25 10:57:02;;;;;;;1.80;1.70;;;;;;;;;;5087365;28;20061;-77
2021/07/25 10:59:40;;;;;;;2.47;2.28;;;;;;;;;;5090809;28;20023;-72
2021/07/25 11:02:10;;;;;;;2.22;2.03;;;;;;;;;;5089973;28;20028;-72
2021/07/25 11:04:53;;;;;;;2.45;2.25;;;;;;;;;;5087001;28;20024;-76
2021/07/25 11:07:24;;;;;;;2.30;2.10;;;;;;;;;;5090173;28;20012;-74
2021/07/25 11:09:57;;;;;;;2.30;2.10;;;;;;;;;;5091370;28;20115;-74
2021/07/25 11:12:22;;;;;;;3.42;2.33;;;;;;;;;;5090912;28;20039;-75
2021/07/25 11:15:00;;;;;;;2.67;2.47;;;;;;;;;;5086242;28;20028;-71
2021/07/25 11:17:43;;;;;;;3.13;2.60;;;;;;;;;;5091928;28;20352;-75
2021/07/25 11:20:28;;;;;;;2.20;1.98;;;;;;;;;;5091852;28;20018;-75
2021/07/25 11:22:54;;;;;;;2.55;2.40;;;;;;;;;;5074081;28;20065;-76
2021/07/25 11:25:35;;;;;;;2.70;2.50;;;;;;;;;;5087540;28;20028;-74
2021/07/25 11:28:00;;;;;;;2.47;2.30;;;;;;;;;;5083439;28;20047;-74
2021/07/25 11:30:44;;;;;;;3.13;2.20;;;;;;;;;;5083098;28;20390;-75
2021/07/25 11:33:09;;;;;;;;;;;;;;;;;;5083181;28;20031;-75
2021/07/25 11:35:35;;;;;;;2.40;2.30;;;;;;;;;;5080064;28;19916;-73
2021/07/25 11:38:01;;;;;;;2.45;2.25;;;;;;;;;;5081452;28;20012;-74
2021/07/25 11:40:28;;;;;;;2.65;1.92;;;;;;;;;;5083390;28;20475;-73
2021/07/25 11:42:53;;;;;;;2.72;2.53;;;;;;;;;;5084996;28;20479;-74
2021/07/25 11:45:26;;;;;;;2.93;2.60;;;;;;;;;;5077395;28;20024;-74
2021/07/25 11:47:51;;;;;;;3.85;2.38;;;;;;;;;;5082431;28;20105;-74
2021/07/25 11:50:35;;;;;;;2.20;2.10;;;;;;;;;;5081132;28;20030;-75
2021/07/25 11:53:01;;;;;;;2.30;2.10;;;;;;;;;;5082436;28;20590;-73
2021/07/25 11:55:27;;;;;;;2.08;1.98;;;;;;;;;;5077880;28;20077;-72
2021/07/25 11:58:06;;;;;;;2.63;2.42;;;;;;;;;;5079774;28;20043;-72
2021/07/25 12:00:32;;;;;;;2.40;2.30;;;;;;;;;;5081971;28;20069;-72
2021/07/25 12:02:57;;;;;;;2.65;2.45;;;;;;;;;;5083240;28;20024;-73
2021/07/25 12:05:25;;;;;;;2.53;2.33;;;;;;;;;;5079648;28;20107;-72
2021/07/25 12:07:50;;;;;;;2.78;2.33;;;;;;;;;;5087291;28;20073;-72
2021/07/25 12:10:26;;;;;;;2.40;2.20;;;;;;;;;;5085924;28;20020;-70
2021/07/25 12:13:01;;;;;;;2.15;1.98;;;;;;;;;;5085727;28;20420;-71
2021/07/25 12:15:28;;;;;;;2.33;2.22;;;;;;;;;;5083604;28;20419;-72
2021/07/25 12:17:54;;;;;;;3.13;2.65;;;;;;;;;;5086232;28;20077;-71
2021/07/25 12:20:20;;;;;;;2.72;2.53;;;;;;;;;;5084032;28;20023;-71
2021/07/25 12:22:59;;;;;;;2.88;2.65;;;;;;;;;;5087172;28;20034;-72
2021/07/25 12:25:31;;;;;;;2.85;2.55;;;;;;;;;;5082166;28;20016;-72
2021/07/25 12:28:02;;;;;;;2.70;2.50;;;;;;;;;;5087442;28;20031;-72
2021/07/25 12:30:37;;;;;;;2.75;2.55;;;;;;;;;;5085903;28;20074;-72
2021/07/25 12:33:06;;;;;;;2.90;2.70;;;;;;;;;;5090392;28;20099;-72
2021/07/25 12:35:32;;;;;;;2.97;2.78;;;;;;;;;;5083070;28;20024;-72
2021/07/25 12:37:59;;;;;;;3.35;3.05;;;;;;;;;;5086272;28;20123;-72
2021/07/25 12:40:24;;;;;;;3.15;2.90;;;;;;;;;;5095839;28;20036;-72
2021/07/25 12:43:10;;;;;;;3.60;3.30;;;;;;;;;;5094766;28;20058;-72
2021/07/25 12:45:36;;;;;;;3.28;2.95;;;;;;;;;;5087769;28;20306;-72
2021/07/25 12:48:07;;;;;;;3.38;3.10;;;;;;;;;;5089082;28;20094;-71
2021/07/25 12:51:03;;;;;;;4.05;3.65;;;;;;;;;;5091590;28;20024;-71
2021/07/25 12:53:31;;;;;;;3.30;3.10;;;;;;;;;;5086084;28;20052;-71
2021/07/25 12:55:57;;;;;;;3.75;3.20;;;;;;;;;;5093244;28;20016;-72
2021/07/25 12:58:27;;;;;;;3.67;3.33;;;;;;;;;;5093196;28;20020;-72
2021/07/25 13:06:05;;;;;;;5.77;3.07;;;;;;;;;;5091245;28;20030;-71
2021/07/25 13:08:31;;;;;;;4.30;3.57;;;;;;;;;;5091912;28;20024;-72
2021/07/25 13:10:56;;;;;;;3.58;3.28;;;;;;;;;;5092220;28;20416;-71
2021/07/25 13:13:21;;;;;;;4.70;2.70;;;;;;;;;;5090034;28;20027;-73
2021/07/25 13:15:46;;;;;;;2.75;2.55;;;;;;;;;;5088677;28;20294;-72
2021/07/25 13:18:11;;;;;;;4.03;3.07;;;;;;;;;;5092166;28;20013;-73
2021/07/25 13:20:37;;;;;;;3.33;1.77;;;;;;;;;;5092432;28;20768;-72
2021/07/25 13:23:02;;;;;;;3.23;2.93;;;;;;;;;;5091420;28;20333;-72
2021/07/25 13:25:27;;;;;;;3.97;3.17;;;;;;;;;;5089226;28;20269;-73
2021/07/25 13:27:52;;;;;;;4.93;3.17;;;;;;;;;;5091910;28;20365;-73
2021/07/25 13:30:18;;;;;;;4.90;3.33;;;;;;;;;;5091949;28;20115;-73
2021/07/25 13:32:43;;;;;;;5.00;3.95;;;;;;;;;;5093349;28;20280;-73
2021/07/25 13:35:08;;;;;;;4.03;3.50;;;;;;;;;;5087865;28;20425;-72
2021/07/25 13:37:33;;;;;;;5.80;3.38;;;;;;;;;;5090364;28;20676;-73
2021/07/25 13:39:59;;;;;;;4.50;3.30;;;;;;;;;;5088630;28;20024;-74
2021/07/25 13:42:24;;;;;;;5.25;4.10;;;;;;;;;;5092226;28;20288;-73
2021/07/25 13:44:58;;;;;;;4.55;4.05;;;;;;;;;;5086003;28;20031;-74
2021/07/25 13:47:23;;;;;;;5.22;4.72;;;;;;;;;;5090390;28;20020;-69
2021/07/25 13:49:48;;;;;;;5.95;5.05;;;;;;;;;;5090114;28;20028;-68
2021/07/25 13:52:13;;;;;;;5.25;4.65;;;;;;;;;;5092298;28;20046;-69
2021/07/25 13:54:39;;;;;;;6.95;4.88;;;;;;;;;;5087170;28;20044;-69
2021/07/25 13:57:04;;;;;;;7.20;5.10;;;;;;;;;;5092276;28;20095;-68
2021/07/25 13:59:29;;;;;;;6.85;4.97;;;;;;;;;;5087640;28;20016;-68
2021/07/25 14:01:55;;;;;;;5.18;4.70;;;;;;;;;;5088263;28;20065;-69
2021/07/25 14:04:20;;;;;;;4.55;3.50;;;;;;;;;;5089354;28;20034;-69
2021/07/25 14:06:45;;;;;;;4.85;4.20;;;;;;;;;;5096241;28;20458;-69
2021/07/25 14:09:10;;;;;;;5.32;3.78;;;;;;;;;;5083461;28;20486;-69
2021/07/25 14:11:37;;;;;;;4.38;3.65;;;;;;;;;;5091910;28;20406;-69
2021/07/25 14:14:02;;;;;;;7.40;4.43;;;;;;;;;;5088146;28;20439;-69
2021/07/25 14:16:28;;;;;;;6.10;4.22;;;;;;;;;;5092194;28;20066;-69
2021/07/25 14:18:53;;;;;;;8.27;4.75;;;;;;;;;;5090812;28;20012;-69
2021/07/25 14:21:19;;;;;;;6.40;4.35;;;;;;;;;;5091242;28;20016;-69
2021/07/25 14:23:44;;;;;;;8.82;5.10;;;;;;;;;;5086728;28;20019;-69
2021/07/25 14:26:11;;;;;;;4.45;4.05;;;;;;;;;;5086149;28;20020;-68
2021/07/25 14:28:36;;;;;;;6.05;4.10;;;;;;;;;;5086410;28;20036;-69
2021/07/25 14:31:01;;;;;;;4.35;3.88;;;;;;;;;;5091602;28;20069;-68
2021/07/25 14:33:26;;;;;;;4.85;3.30;;;;;;;;;;5087886;28;20502;-69
2021/07/25 14:35:52;;;;;;;4.90;3.40;;;;;;;;;;5090905;28;20067;-68
2021/07/25 14:38:17;;;;;;;3.75;3.40;;;;;;;;;;5091244;28;20258;-68
2021/07/25 14:40:43;;;;;;;3.53;2.93;;;;;;;;;;5091182;28;20016;-69
2021/07/25 14:43:09;;;;;;;3.83;3.15;;;;;;;;;;5089675;28;20288;-68
2021/07/25 14:45:34;;;;;;;3.28;2.92;;;;;;;;;;5089883;28;20495;-68